Time;durP1;ratioP1;P1;durP2;ratioP2;P2;SDS_P1;SDS_P2;PMS_P1;PMS_P2;Temp;Humidity;BMP_temperature;BMP_pressure;BME280_temperature;BME280_humidity;BME280_pressure;Samples;Min_cycle;Max_cycle;Signal;HPM_P1;HPM_P2
2022/01/05 00:00:09;;;;;;;0.00;0.00;;;;;;;;;;1724605;28;20219;-69
2022/01/05 00:01:03;;;;;;;0.00;0.00;;;;;;;;;;1723979;28;20257;-69
2022/01/05 00:01:54;;;;;;;0.00;0.00;;;;;;;;;;1724524;28;20237;-69
2022/01/05 00:02:46;;;;;;;0.20;0.20;;;;;;;;;;1725350;28;20277;-70
2022/01/05 00:03:37;;;;;;;0.00;0.00;;;;;;;;;;1724618;28;20200;-70
2022/01/05 00:04:29;;;;;;;0.03;0.03;;;;;;;;;;1725460;28;20787;-70
2022/01/05 00:05:21;;;;;;;0.00;0.00;;;;;;;;;;1723902;28;20550;-70
2022/01/05 00:06:13;;;;;;;0.00;0.00;;;;;;;;;;1722726;28;20632;-69
2022/01/05 00:07:04;;;;;;;0.00;0.00;;;;;;;;;;1724499;28;20207;-69
2022/01/05 00:07:56;;;;;;;0.00;0.00;;;;;;;;;;1725583;28;20211;-69
2022/01/05 00:08:48;;;;;;;0.30;0.30;;;;;;;;;;1724208;28;20587;-69
2022/01/05 00:09:42;;;;;;;0.10;0.10;;;;;;;;;;1725634;28;20683;-69
2022/01/05 00:10:34;;;;;;;0.30;0.30;;;;;;;;;;1724126;28;20288;-69
2022/01/05 00:11:26;;;;;;;0.10;0.10;;;;;;;;;;1724333;28;20689;-69
2022/01/05 00:12:17;;;;;;;0.10;0.10;;;;;;;;;;1724797;28;20208;-69
2022/01/05 00:13:09;;;;;;;0.30;0.30;;;;;;;;;;1724990;28;20288;-69
2022/01/05 00:14:00;;;;;;;0.10;0.10;;;;;;;;;;1724547;28;20468;-69
2022/01/05 00:14:53;;;;;;;0.00;0.00;;;;;;;;;;1724670;28;20231;-69
2022/01/05 00:15:44;;;;;;;0.20;0.20;;;;;;;;;;1724610;28;20595;-69
2022/01/05 00:16:36;;;;;;;0.10;0.10;;;;;;;;;;1725922;28;20326;-69
2022/01/05 00:17:28;;;;;;;0.40;0.40;;;;;;;;;;1723933;28;20329;-69
2022/01/05 00:18:20;;;;;;;0.20;0.20;;;;;;;;;;1725042;28;20291;-69
2022/01/05 00:19:11;;;;;;;0.10;0.10;;;;;;;;;;1724970;28;20222;-69
2022/01/05 00:20:05;;;;;;;0.00;0.00;;;;;;;;;;1724426;28;20232;-69
2022/01/05 00:20:56;;;;;;;0.20;0.20;;;;;;;;;;1723820;28;20239;-70
2022/01/05 00:21:48;;;;;;;0.10;0.10;;;;;;;;;;1724562;28;20231;-70
2022/01/05 00:22:39;;;;;;;0.00;0.00;;;;;;;;;;1725540;28;20214;-70
2022/01/05 00:23:32;;;;;;;0.10;0.10;;;;;;;;;;1723959;28;20215;-70
2022/01/05 00:24:23;;;;;;;0.10;0.10;;;;;;;;;;1725114;28;20206;-70
2022/01/05 00:25:17;;;;;;;0.00;0.00;;;;;;;;;;1725771;28;20203;-70
2022/01/05 00:26:08;;;;;;;0.00;0.00;;;;;;;;;;1723996;28;20239;-70
2022/01/05 00:27:00;;;;;;;0.00;0.00;;;;;;;;;;1724069;28;20628;-70
2022/01/05 00:27:51;;;;;;;0.10;0.10;;;;;;;;;;1722481;28;20206;-70
2022/01/05 00:28:44;;;;;;;0.00;0.00;;;;;;;;;;1724670;28;20256;-70
2022/01/05 00:29:35;;;;;;;0.00;0.00;;;;;;;;;;1724779;28;20677;-70
2022/01/05 00:30:27;;;;;;;0.00;0.00;;;;;;;;;;1723448;28;20196;-69
2022/01/05 00:31:18;;;;;;;0.10;0.10;;;;;;;;;;1725326;28;20207;-69
2022/01/05 00:32:10;;;;;;;0.10;0.10;;;;;;;;;;1724632;28;20228;-69
2022/01/05 00:33:02;;;;;;;0.10;0.10;;;;;;;;;;1725505;28;20665;-69
2022/01/05 00:33:54;;;;;;;0.00;0.00;;;;;;;;;;1723905;28;20270;-69
2022/01/05 00:34:45;;;;;;;0.00;0.00;;;;;;;;;;1725189;28;20538;-69
2022/01/05 00:35:37;;;;;;;0.10;0.10;;;;;;;;;;1723590;28;20909;-70
2022/01/05 00:36:28;;;;;;;0.00;0.00;;;;;;;;;;1724327;28;20217;-70
2022/01/05 00:37:21;;;;;;;0.10;0.10;;;;;;;;;;1724747;28;20205;-70
2022/01/05 00:38:12;;;;;;;0.10;0.10;;;;;;;;;;1724891;28;20220;-70
2022/01/05 00:39:04;;;;;;;0.03;0.03;;;;;;;;;;1724850;28;20267;-70
2022/01/05 00:39:56;;;;;;;0.10;0.10;;;;;;;;;;1724442;28;20218;-70
2022/01/05 00:40:49;;;;;;;0.00;0.00;;;;;;;;;;1724442;28;20254;-69
2022/01/05 00:41:40;;;;;;;0.40;0.40;;;;;;;;;;1724438;28;20207;-69
2022/01/05 00:42:33;;;;;;;0.10;0.10;;;;;;;;;;1723941;28;20254;-69
2022/01/05 00:43:24;;;;;;;0.00;0.00;;;;;;;;;;1724576;28;20554;-69
2022/01/05 00:44:16;;;;;;;0.00;0.00;;;;;;;;;;1725006;28;20207;-69
2022/01/05 00:45:08;;;;;;;0.00;0.00;;;;;;;;;;1724309;28;20212;-69
2022/01/05 00:46:01;;;;;;;0.00;0.00;;;;;;;;;;1724217;28;20325;-69
2022/01/05 00:46:52;;;;;;;0.00;0.00;;;;;;;;;;1724582;28;20215;-69
2022/01/05 00:47:44;;;;;;;0.00;0.00;;;;;;;;;;1724797;28;20203;-69
2022/01/05 00:48:35;;;;;;;0.10;0.10;;;;;;;;;;1723311;28;20262;-69
2022/01/05 00:49:27;;;;;;;0.10;0.10;;;;;;;;;;1725035;28;20200;-69
2022/01/05 00:50:18;;;;;;;0.00;0.00;;;;;;;;;;1725756;28;20243;-69
2022/01/05 00:51:11;;;;;;;0.03;0.03;;;;;;;;;;1725733;28;20259;-69
2022/01/05 00:52:03;;;;;;;0.10;0.10;;;;;;;;;;1725838;28;20215;-69
2022/01/05 00:53:00;;;;;;;0.10;0.10;;;;;;;;;;1726433;28;20547;-69
2022/01/05 00:53:52;;;;;;;0.00;0.00;;;;;;;;;;1725754;28;20511;-69
2022/01/05 00:54:45;;;;;;;0.00;0.00;;;;;;;;;;1725362;28;20566;-69
2022/01/05 00:55:37;;;;;;;0.00;0.00;;;;;;;;;;1725043;28;20204;-70
2022/01/05 00:56:31;;;;;;;0.00;0.00;;;;;;;;;;1726180;28;20200;-70
2022/01/05 00:57:22;;;;;;;0.00;0.00;;;;;;;;;;1725692;28;20212;-70
2022/01/05 00:58:14;;;;;;;0.00;0.00;;;;;;;;;;1726111;28;20219;-70
2022/01/05 00:59:05;;;;;;;0.08;0.08;;;;;;;;;;1724993;28;20214;-70
2022/01/05 00:59:57;;;;;;;0.00;0.00;;;;;;;;;;1726412;28;20305;-70
2022/01/05 01:00:48;;;;;;;0.20;0.20;;;;;;;;;;1724311;28;20589;-69
2022/01/05 01:01:41;;;;;;;0.08;0.08;;;;;;;;;;1725893;28;20525;-69
2022/01/05 01:02:32;;;;;;;0.10;0.10;;;;;;;;;;1726426;28;20211;-69
2022/01/05 01:03:26;;;;;;;0.10;0.10;;;;;;;;;;1726045;28;20209;-69
2022/01/05 01:04:18;;;;;;;0.20;0.20;;;;;;;;;;1726273;28;20254;-69
2022/01/05 01:05:14;;;;;;;0.03;0.03;;;;;;;;;;1725572;28;20611;-69
2022/01/05 01:06:06;;;;;;;0.43;0.43;;;;;;;;;;1725483;28;20270;-69
2022/01/05 01:06:58;;;;;;;0.00;0.00;;;;;;;;;;1725186;28;20242;-69
2022/01/05 01:07:49;;;;;;;0.08;0.08;;;;;;;;;;1725960;28;20213;-69
2022/01/05 01:08:41;;;;;;;0.08;0.08;;;;;;;;;;1725888;28;20262;-69
2022/01/05 01:09:32;;;;;;;0.00;0.00;;;;;;;;;;1723872;28;20208;-69
2022/01/05 01:10:25;;;;;;;0.00;0.00;;;;;;;;;;1724041;28;20234;-68
2022/01/05 01:11:16;;;;;;;0.00;0.00;;;;;;;;;;1726299;28;20208;-69
2022/01/05 01:12:11;;;;;;;0.00;0.00;;;;;;;;;;1725616;28;20208;-69
2022/01/05 01:13:02;;;;;;;0.00;0.00;;;;;;;;;;1725965;28;20208;-69
2022/01/05 01:13:54;;;;;;;0.00;0.00;;;;;;;;;;1725425;28;20717;-69
2022/01/05 01:14:46;;;;;;;0.00;0.00;;;;;;;;;;1726102;28;20204;-69
2022/01/05 01:15:38;;;;;;;0.00;0.00;;;;;;;;;;1725082;28;20224;-70
2022/01/05 01:16:29;;;;;;;0.10;0.10;;;;;;;;;;1725983;28;20200;-70
2022/01/05 01:17:22;;;;;;;0.00;0.00;;;;;;;;;;1726007;28;20253;-70
2022/01/05 01:18:13;;;;;;;0.00;0.00;;;;;;;;;;1720793;28;20219;-70
2022/01/05 01:19:05;;;;;;;0.00;0.00;;;;;;;;;;1725424;28;20481;-70
2022/01/05 01:19:56;;;;;;;0.10;0.10;;;;;;;;;;1725016;28;20212;-70
2022/01/05 01:20:49;;;;;;;0.17;0.17;;;;;;;;;;1725542;28;20278;-70
2022/01/05 01:21:40;;;;;;;0.20;0.20;;;;;;;;;;1725487;28;20216;-70
2022/01/05 01:22:34;;;;;;;0.10;0.10;;;;;;;;;;1726154;28;20300;-70
2022/01/05 01:23:26;;;;;;;0.15;0.15;;;;;;;;;;1725871;28;20200;-70
2022/01/05 01:24:18;;;;;;;0.00;0.00;;;;;;;;;;1725052;28;20204;-70
2022/01/05 01:25:10;;;;;;;0.00;0.00;;;;;;;;;;1725930;28;20212;-70
2022/01/05 01:26:02;;;;;;;0.00;0.00;;;;;;;;;;1724845;28;20228;-70
2022/01/05 01:26:54;;;;;;;0.00;0.00;;;;;;;;;;1724463;28;20894;-70
2022/01/05 01:27:47;;;;;;;0.03;0.03;;;;;;;;;;1722012;28;20204;-70
2022/01/05 01:28:38;;;;;;;0.10;0.10;;;;;;;;;;1723950;28;20204;-70
2022/01/05 01:29:31;;;;;;;0.10;0.10;;;;;;;;;;1724974;28;20207;-70
2022/01/05 01:30:22;;;;;;;0.03;0.03;;;;;;;;;;1723547;28;20208;-70
2022/01/05 01:31:14;;;;;;;0.00;0.00;;;;;;;;;;1725845;28;20290;-70
2022/01/05 01:32:05;;;;;;;0.00;0.00;;;;;;;;;;1724536;28;20629;-70
2022/01/05 01:32:58;;;;;;;0.00;0.00;;;;;;;;;;1726184;28;20209;-70
2022/01/05 01:33:49;;;;;;;0.00;0.00;;;;;;;;;;1725888;28;20202;-70
2022/01/05 01:34:41;;;;;;;0.00;0.00;;;;;;;;;;1726378;28;20237;-69
2022/01/05 01:35:32;;;;;;;0.20;0.20;;;;;;;;;;1725207;28;20235;-70
2022/01/05 01:36:25;;;;;;;0.00;0.00;;;;;;;;;;1720827;28;20202;-70
2022/01/05 01:37:16;;;;;;;0.10;0.10;;;;;;;;;;1725624;28;20623;-70
2022/01/05 01:38:08;;;;;;;0.03;0.03;;;;;;;;;;1725144;28;20607;-70
2022/01/05 01:38:59;;;;;;;0.10;0.10;;;;;;;;;;1725791;28;20208;-70
2022/01/05 01:39:51;;;;;;;0.00;0.00;;;;;;;;;;1725868;28;20212;-70
2022/01/05 01:40:43;;;;;;;0.05;0.05;;;;;;;;;;1725372;28;20265;-69
2022/01/05 01:41:35;;;;;;;0.00;0.00;;;;;;;;;;1726120;28;20204;-69
2022/01/05 01:42:26;;;;;;;0.20;0.20;;;;;;;;;;1725558;28;20207;-69
2022/01/05 01:43:20;;;;;;;0.10;0.10;;;;;;;;;;1725936;28;20207;-69
2022/01/05 01:44:11;;;;;;;0.10;0.10;;;;;;;;;;1725154;28;20207;-69
2022/01/05 01:45:03;;;;;;;0.10;0.10;;;;;;;;;;1725557;28;20290;-69
2022/01/05 01:45:54;;;;;;;0.00;0.00;;;;;;;;;;1725873;28;20645;-70
2022/01/05 01:46:47;;;;;;;0.00;0.00;;;;;;;;;;1725680;28;20260;-69
2022/01/05 01:47:38;;;;;;;0.10;0.10;;;;;;;;;;1726076;28;20203;-69
2022/01/05 01:48:30;;;;;;;0.00;0.00;;;;;;;;;;1725617;28;20200;-69
2022/01/05 01:49:21;;;;;;;0.10;0.10;;;;;;;;;;1725844;28;20345;-69
2022/01/05 01:50:13;;;;;;;0.00;0.00;;;;;;;;;;1725038;28;20303;-69
2022/01/05 01:51:05;;;;;;;0.10;0.10;;;;;;;;;;1725206;28;20232;-69
2022/01/05 01:51:57;;;;;;;0.20;0.20;;;;;;;;;;1725844;28;20299;-69
2022/01/05 01:52:48;;;;;;;0.10;0.10;;;;;;;;;;1726407;28;20201;-68
2022/01/05 01:53:40;;;;;;;0.00;0.00;;;;;;;;;;1725728;28;20480;-69
2022/01/05 01:54:31;;;;;;;0.10;0.10;;;;;;;;;;1726099;28;20215;-69
2022/01/05 01:55:24;;;;;;;0.00;0.00;;;;;;;;;;1724767;28;20221;-71
2022/01/05 01:56:15;;;;;;;0.00;0.00;;;;;;;;;;1725570;28;20241;-69
2022/01/05 01:57:08;;;;;;;0.10;0.10;;;;;;;;;;1725707;28;20208;-69
2022/01/05 01:57:59;;;;;;;0.03;0.03;;;;;;;;;;1726334;28;20629;-69
2022/01/05 01:58:53;;;;;;;0.10;0.10;;;;;;;;;;1725596;28;20203;-69
2022/01/05 01:59:44;;;;;;;0.13;0.13;;;;;;;;;;1726238;28;20681;-69
2022/01/05 02:00:37;;;;;;;0.10;0.10;;;;;;;;;;1724693;28;20235;-69
2022/01/05 02:01:28;;;;;;;0.10;0.10;;;;;;;;;;1725865;28;20613;-69
2022/01/05 02:02:20;;;;;;;0.00;0.00;;;;;;;;;;1725479;28;20202;-69
2022/01/05 02:03:12;;;;;;;0.10;0.10;;;;;;;;;;1725659;28;20636;-69
2022/01/05 02:04:04;;;;;;;0.00;0.00;;;;;;;;;;1725787;28;20279;-69
2022/01/05 02:04:56;;;;;;;0.10;0.10;;;;;;;;;;1725779;28;20811;-69
2022/01/05 02:05:48;;;;;;;0.03;0.03;;;;;;;;;;1725056;28;20239;-68
2022/01/05 02:06:39;;;;;;;0.00;0.00;;;;;;;;;;1725786;28;20208;-69
2022/01/05 02:07:31;;;;;;;0.20;0.20;;;;;;;;;;1725753;28;20582;-69
2022/01/05 02:08:23;;;;;;;0.00;0.00;;;;;;;;;;1725484;28;20208;-69
2022/01/05 02:09:15;;;;;;;0.00;0.00;;;;;;;;;;1725377;28;20231;-69
2022/01/05 02:10:07;;;;;;;0.08;0.08;;;;;;;;;;1725145;28;20606;-69
2022/01/05 02:10:59;;;;;;;0.20;0.20;;;;;;;;;;1725489;28;20997;-69
2022/01/05 02:11:50;;;;;;;0.10;0.10;;;;;;;;;;1725394;28;20594;-69
2022/01/05 02:12:42;;;;;;;0.13;0.13;;;;;;;;;;1726154;28;20218;-69
2022/01/05 02:13:34;;;;;;;0.10;0.10;;;;;;;;;;1725665;28;20528;-69
2022/01/05 02:14:27;;;;;;;0.10;0.10;;;;;;;;;;1725724;28;20205;-69
2022/01/05 02:15:20;;;;;;;0.10;0.10;;;;;;;;;;1725237;28;20270;-69
2022/01/05 02:16:14;;;;;;;0.00;0.00;;;;;;;;;;1722655;28;20235;-69
2022/01/05 02:17:11;;;;;;;0.10;0.10;;;;;;;;;;1725122;28;20205;-69
2022/01/05 02:18:57;;;;;;;0.10;0.10;;;;;;;;;;1725898;28;20578;-69
2022/01/05 02:19:21;;;;;;;0.10;0.10;;;;;;;;;;1725279;28;20215;-69
2022/01/05 02:20:17;;;;;;;0.10;0.10;;;;;;;;;;1725395;28;20212;-69
2022/01/05 02:21:10;;;;;;;0.10;0.10;;;;;;;;;;1724385;28;20597;-68
2022/01/05 02:22:03;;;;;;;0.13;0.13;;;;;;;;;;1725323;28;20214;-69
2022/01/05 02:22:54;;;;;;;0.00;0.00;;;;;;;;;;1725973;28;20208;-68
2022/01/05 02:23:46;;;;;;;0.10;0.10;;;;;;;;;;1725445;28;20243;-69
2022/01/05 02:24:38;;;;;;;0.10;0.10;;;;;;;;;;1726054;28;20278;-69
2022/01/05 02:25:30;;;;;;;0.10;0.10;;;;;;;;;;1724656;28;20203;-68
2022/01/05 02:26:21;;;;;;;0.05;0.05;;;;;;;;;;1724889;28;20581;-69
2022/01/05 02:27:13;;;;;;;0.10;0.10;;;;;;;;;;1724694;28;20212;-69
2022/01/05 02:28:05;;;;;;;0.10;0.10;;;;;;;;;;1725353;28;20219;-69
2022/01/05 02:28:57;;;;;;;0.10;0.10;;;;;;;;;;1725113;28;20711;-69
2022/01/05 02:29:48;;;;;;;0.10;0.10;;;;;;;;;;1726441;28;20203;-69
2022/01/05 02:30:39;;;;;;;0.00;0.00;;;;;;;;;;1725051;28;20342;-68
2022/01/05 02:31:32;;;;;;;0.20;0.20;;;;;;;;;;1725765;28;20204;-69
2022/01/05 02:32:23;;;;;;;0.10;0.10;;;;;;;;;;1725541;28;20253;-69
2022/01/05 02:33:15;;;;;;;0.00;0.00;;;;;;;;;;1725081;28;20505;-69
2022/01/05 02:34:07;;;;;;;0.03;0.03;;;;;;;;;;1724399;28;20212;-69
2022/01/05 02:34:58;;;;;;;0.17;0.17;;;;;;;;;;1725433;28;20204;-69
2022/01/05 02:35:51;;;;;;;0.00;0.00;;;;;;;;;;1725348;28;20764;-69
2022/01/05 02:36:43;;;;;;;0.10;0.10;;;;;;;;;;1725453;28;20208;-69
2022/01/05 02:37:40;;;;;;;0.03;0.03;;;;;;;;;;1725683;28;20290;-69
2022/01/05 02:38:31;;;;;;;0.13;0.13;;;;;;;;;;1725496;28;20194;-69
2022/01/05 02:39:24;;;;;;;0.00;0.00;;;;;;;;;;1725028;28;20215;-69
2022/01/05 02:40:16;;;;;;;0.00;0.00;;;;;;;;;;1724999;28;20228;-69
2022/01/05 02:41:09;;;;;;;0.10;0.10;;;;;;;;;;1721970;28;20279;-69
2022/01/05 02:42:00;;;;;;;0.30;0.30;;;;;;;;;;1723978;28;20208;-69
2022/01/05 02:42:53;;;;;;;0.20;0.20;;;;;;;;;;1725849;28;20204;-69
2022/01/05 02:43:45;;;;;;;0.00;0.00;;;;;;;;;;1725120;28;20200;-69
2022/01/05 02:44:37;;;;;;;0.10;0.10;;;;;;;;;;1725656;28;20247;-70
2022/01/05 02:45:28;;;;;;;0.10;0.10;;;;;;;;;;1724300;28;20200;-68
2022/01/05 02:46:21;;;;;;;0.08;0.08;;;;;;;;;;1725806;28;20303;-69
2022/01/05 02:47:13;;;;;;;0.20;0.20;;;;;;;;;;1724866;28;20664;-69
2022/01/05 02:48:05;;;;;;;0.00;0.00;;;;;;;;;;1725629;28;20204;-69
2022/01/05 02:48:58;;;;;;;0.15;0.15;;;;;;;;;;1725142;28;20236;-69
2022/01/05 02:49:50;;;;;;;0.20;0.20;;;;;;;;;;1725252;28;20212;-69
2022/01/05 02:50:41;;;;;;;0.10;0.10;;;;;;;;;;1724893;28;20212;-69
2022/01/05 02:51:33;;;;;;;0.13;0.13;;;;;;;;;;1725314;28;20251;-69
2022/01/05 02:52:26;;;;;;;0.00;0.00;;;;;;;;;;1723988;28;20202;-69
2022/01/05 02:53:18;;;;;;;0.10;0.10;;;;;;;;;;1725342;28;20593;-69
2022/01/05 02:54:09;;;;;;;0.08;0.08;;;;;;;;;;1725619;28;20524;-69
2022/01/05 02:55:03;;;;;;;0.47;0.47;;;;;;;;;;1725615;28;20199;-69
2022/01/05 02:55:54;;;;;;;0.17;0.17;;;;;;;;;;1724873;28;20692;-69
2022/01/05 02:56:46;;;;;;;0.20;0.20;;;;;;;;;;1725644;28;20288;-69
2022/01/05 02:57:37;;;;;;;0.55;0.55;;;;;;;;;;1725539;28;20230;-69
2022/01/05 02:58:30;;;;;;;0.20;0.20;;;;;;;;;;1724412;28;20201;-69
2022/01/05 02:59:21;;;;;;;0.20;0.20;;;;;;;;;;1725821;28;20204;-69
2022/01/05 03:00:16;;;;;;;0.20;0.20;;;;;;;;;;1725329;28;20568;-69
2022/01/05 03:01:08;;;;;;;0.30;0.30;;;;;;;;;;1724536;28;20275;-69
2022/01/05 03:02:00;;;;;;;0.20;0.20;;;;;;;;;;1725382;28;20538;-69
2022/01/05 03:02:51;;;;;;;0.10;0.10;;;;;;;;;;1726174;28;20212;-69
2022/01/05 03:03:43;;;;;;;0.50;0.50;;;;;;;;;;1725341;28;20338;-69
2022/01/05 03:04:35;;;;;;;0.13;0.13;;;;;;;;;;1725583;28;20912;-69
2022/01/05 03:05:27;;;;;;;0.22;0.22;;;;;;;;;;1724714;28;20214;-68
2022/01/05 03:06:18;;;;;;;0.20;0.20;;;;;;;;;;1725949;28;20243;-69
2022/01/05 03:07:10;;;;;;;0.10;0.10;;;;;;;;;;1725144;28;20211;-68
2022/01/05 03:08:03;;;;;;;0.15;0.15;;;;;;;;;;1725958;28;20512;-68
2022/01/05 03:08:55;;;;;;;0.10;0.10;;;;;;;;;;1725421;28;20231;-69
2022/01/05 03:09:47;;;;;;;0.00;0.00;;;;;;;;;;1725616;28;20205;-69
2022/01/05 03:10:39;;;;;;;0.10;0.10;;;;;;;;;;1723888;28;20207;-68
2022/01/05 03:11:30;;;;;;;0.10;0.10;;;;;;;;;;1725720;28;20627;-68
2022/01/05 03:12:22;;;;;;;0.10;0.10;;;;;;;;;;1724828;28;20200;-69
2022/01/05 03:13:13;;;;;;;0.30;0.30;;;;;;;;;;1725624;28;20227;-68
2022/01/05 03:14:05;;;;;;;0.10;0.10;;;;;;;;;;1724734;28;20696;-68
2022/01/05 03:14:57;;;;;;;0.15;0.15;;;;;;;;;;1725718;28;20215;-69
2022/01/05 03:15:49;;;;;;;0.10;0.10;;;;;;;;;;1725296;28;20288;-69
2022/01/05 03:16:40;;;;;;;0.10;0.10;;;;;;;;;;1725034;28;20638;-69
2022/01/05 03:17:32;;;;;;;0.15;0.15;;;;;;;;;;1725205;28;20204;-69
2022/01/05 03:18:24;;;;;;;0.10;0.10;;;;;;;;;;1725311;28;20219;-69
2022/01/05 03:19:16;;;;;;;0.00;0.00;;;;;;;;;;1725891;28;20220;-69
2022/01/05 03:20:10;;;;;;;0.10;0.10;;;;;;;;;;1725404;28;20208;-69
2022/01/05 03:21:02;;;;;;;0.10;0.10;;;;;;;;;;1725103;28;20306;-69
2022/01/05 03:21:53;;;;;;;0.00;0.00;;;;;;;;;;1725604;28;20430;-69
2022/01/05 03:22:45;;;;;;;0.03;0.03;;;;;;;;;;1725397;28;20208;-69
2022/01/05 03:23:38;;;;;;;0.10;0.10;;;;;;;;;;1725306;28;20207;-69
2022/01/05 03:24:30;;;;;;;0.10;0.10;;;;;;;;;;1725802;28;20204;-69
2022/01/05 03:25:21;;;;;;;0.20;0.20;;;;;;;;;;1725762;28;20212;-69
2022/01/05 03:26:13;;;;;;;0.30;0.30;;;;;;;;;;1714942;28;20233;-69
2022/01/05 03:27:05;;;;;;;0.10;0.10;;;;;;;;;;1718441;28;20409;-69
2022/01/05 03:27:57;;;;;;;0.30;0.30;;;;;;;;;;1719370;28;20623;-68
2022/01/05 03:28:49;;;;;;;0.30;0.30;;;;;;;;;;1717612;28;20249;-69
2022/01/05 03:29:41;;;;;;;0.20;0.20;;;;;;;;;;1718849;28;20197;-68
2022/01/05 03:30:33;;;;;;;0.10;0.10;;;;;;;;;;1717732;28;20585;-69
2022/01/05 03:31:26;;;;;;;0.10;0.10;;;;;;;;;;1718943;28;20287;-69
2022/01/05 03:32:17;;;;;;;0.20;0.20;;;;;;;;;;1718755;28;20306;-70
2022/01/05 03:33:11;;;;;;;0.10;0.10;;;;;;;;;;1718860;28;20205;-69
2022/01/05 03:34:04;;;;;;;0.10;0.10;;;;;;;;;;1719131;28;20237;-70
2022/01/05 03:34:56;;;;;;;0.00;0.00;;;;;;;;;;1718040;28;20215;-70
2022/01/05 03:35:48;;;;;;;0.00;0.00;;;;;;;;;;1717960;28;20255;-69
2022/01/05 03:36:40;;;;;;;0.20;0.20;;;;;;;;;;1718692;28;20255;-69
2022/01/05 03:37:31;;;;;;;0.10;0.10;;;;;;;;;;1718703;28;20209;-69
2022/01/05 03:38:24;;;;;;;0.00;0.00;;;;;;;;;;1718670;28;20332;-69
2022/01/05 03:39:16;;;;;;;0.10;0.10;;;;;;;;;;1718858;28;20220;-69
2022/01/05 03:40:11;;;;;;;0.20;0.20;;;;;;;;;;1717919;28;20217;-69
2022/01/05 03:41:02;;;;;;;0.08;0.08;;;;;;;;;;1718010;28;20244;-69
2022/01/05 03:41:55;;;;;;;0.00;0.00;;;;;;;;;;1717870;28;20205;-69
2022/01/05 03:42:46;;;;;;;0.00;0.00;;;;;;;;;;1719025;28;20474;-69
2022/01/05 03:43:38;;;;;;;0.00;0.00;;;;;;;;;;1718263;28;20531;-69
2022/01/05 03:44:29;;;;;;;0.10;0.10;;;;;;;;;;1719225;28;20215;-68
2022/01/05 03:45:21;;;;;;;0.10;0.10;;;;;;;;;;1718637;28;20207;-69
2022/01/05 03:46:13;;;;;;;0.10;0.10;;;;;;;;;;1722174;28;20236;-68
2022/01/05 03:47:05;;;;;;;0.30;0.30;;;;;;;;;;1724978;28;20609;-69
2022/01/05 03:47:56;;;;;;;0.20;0.20;;;;;;;;;;1725126;28;20349;-69
2022/01/05 03:48:49;;;;;;;0.20;0.20;;;;;;;;;;1724783;28;20544;-68
2022/01/05 03:49:40;;;;;;;0.10;0.10;;;;;;;;;;1725718;28;20204;-69
2022/01/05 03:50:31;;;;;;;0.10;0.10;;;;;;;;;;1724262;28;20713;-69
2022/01/05 03:51:23;;;;;;;0.10;0.10;;;;;;;;;;1725438;28;20204;-69
2022/01/05 03:52:14;;;;;;;0.15;0.15;;;;;;;;;;1724919;28;20216;-69
2022/01/05 03:53:07;;;;;;;0.17;0.17;;;;;;;;;;1725564;28;20212;-69
2022/01/05 03:53:58;;;;;;;0.20;0.20;;;;;;;;;;1724178;28;20669;-69
2022/01/05 03:54:52;;;;;;;0.10;0.10;;;;;;;;;;1725175;28;20295;-69
2022/01/05 03:55:44;;;;;;;0.08;0.08;;;;;;;;;;1724768;28;20536;-68
2022/01/05 03:56:36;;;;;;;0.20;0.20;;;;;;;;;;1725115;28;20262;-69
2022/01/05 03:57:27;;;;;;;0.13;0.13;;;;;;;;;;1724855;28;20255;-68
2022/01/05 03:58:19;;;;;;;0.10;0.10;;;;;;;;;;1724824;28;20224;-69
2022/01/05 03:59:11;;;;;;;0.10;0.10;;;;;;;;;;1725196;28;20227;-69
2022/01/05 04:00:03;;;;;;;0.30;0.30;;;;;;;;;;1724666;28;20203;-69
2022/01/05 04:00:55;;;;;;;0.20;0.20;;;;;;;;;;1723870;28;20239;-69
2022/01/05 04:01:47;;;;;;;0.10;0.10;;;;;;;;;;1725137;28;20267;-69
2022/01/05 04:02:38;;;;;;;0.00;0.00;;;;;;;;;;1725136;28;20204;-69
2022/01/05 04:03:31;;;;;;;0.13;0.13;;;;;;;;;;1725164;28;20703;-69
2022/01/05 04:04:22;;;;;;;0.10;0.10;;;;;;;;;;1725406;28;20204;-69
2022/01/05 04:05:15;;;;;;;0.10;0.10;;;;;;;;;;1725196;28;20242;-69
2022/01/05 04:06:06;;;;;;;0.10;0.10;;;;;;;;;;1723199;28;20236;-69
2022/01/05 04:06:58;;;;;;;0.10;0.10;;;;;;;;;;1724664;28;20258;-69
2022/01/05 04:07:49;;;;;;;0.10;0.10;;;;;;;;;;1725243;28;20246;-69
2022/01/05 04:08:42;;;;;;;0.30;0.30;;;;;;;;;;1724569;28;20223;-69
2022/01/05 04:09:33;;;;;;;0.10;0.10;;;;;;;;;;1722991;28;20204;-69
2022/01/05 04:10:26;;;;;;;0.00;0.00;;;;;;;;;;1723850;28;20204;-68
2022/01/05 04:11:18;;;;;;;0.28;0.28;;;;;;;;;;1725640;28;20204;-69
2022/01/05 04:12:10;;;;;;;0.15;0.15;;;;;;;;;;1724245;28;20299;-68
2022/01/05 04:13:02;;;;;;;0.10;0.10;;;;;;;;;;1725267;28;20208;-69
2022/01/05 04:13:54;;;;;;;0.10;0.10;;;;;;;;;;1724971;28;20242;-68
2022/01/05 04:14:45;;;;;;;0.10;0.10;;;;;;;;;;1724668;28;20211;-69
2022/01/05 04:15:38;;;;;;;0.15;0.15;;;;;;;;;;1724299;28;20196;-69
2022/01/05 04:16:29;;;;;;;0.17;0.17;;;;;;;;;;1725149;28;20215;-69
2022/01/05 04:17:22;;;;;;;0.00;0.00;;;;;;;;;;1724374;28;20263;-69
2022/01/05 04:18:13;;;;;;;0.00;0.00;;;;;;;;;;1719370;28;20563;-69
2022/01/05 04:19:05;;;;;;;0.10;0.10;;;;;;;;;;1724207;28;20669;-69
2022/01/05 04:19:57;;;;;;;0.10;0.10;;;;;;;;;;1724724;28;20400;-69
2022/01/05 04:20:49;;;;;;;0.30;0.30;;;;;;;;;;1724555;28;20251;-69
2022/01/05 04:21:40;;;;;;;0.00;0.00;;;;;;;;;;1725294;28;20204;-69
2022/01/05 04:22:32;;;;;;;0.10;0.10;;;;;;;;;;1725146;28;20200;-69
2022/01/05 04:23:23;;;;;;;0.10;0.10;;;;;;;;;;1724850;28;20215;-69
2022/01/05 04:24:16;;;;;;;0.10;0.10;;;;;;;;;;1726247;28;20208;-69
2022/01/05 04:25:09;;;;;;;0.10;0.10;;;;;;;;;;1725327;28;20483;-69
2022/01/05 04:26:02;;;;;;;0.10;0.10;;;;;;;;;;1726107;28;20235;-69
2022/01/05 04:26:53;;;;;;;0.32;0.32;;;;;;;;;;1725745;28;20211;-69
2022/01/05 04:27:45;;;;;;;0.10;0.10;;;;;;;;;;1726445;28;20227;-69
2022/01/05 04:28:37;;;;;;;0.08;0.08;;;;;;;;;;1726221;28;20554;-69
2022/01/05 04:29:29;;;;;;;0.10;0.10;;;;;;;;;;1726690;28;20572;-69
2022/01/05 04:30:20;;;;;;;0.30;0.30;;;;;;;;;;1725034;28;20542;-70
2022/01/05 04:31:12;;;;;;;0.10;0.10;;;;;;;;;;1725729;28;20633;-69
2022/01/05 04:32:04;;;;;;;0.10;0.10;;;;;;;;;;1726084;28;20266;-69
2022/01/05 04:32:56;;;;;;;0.10;0.10;;;;;;;;;;1727056;28;20208;-69
2022/01/05 04:33:47;;;;;;;0.10;0.10;;;;;;;;;;1726162;28;20219;-69
2022/01/05 04:34:40;;;;;;;0.10;0.10;;;;;;;;;;1726828;28;20290;-69
2022/01/05 04:35:31;;;;;;;0.10;0.10;;;;;;;;;;1725359;28;20265;-69
2022/01/05 04:36:23;;;;;;;0.03;0.03;;;;;;;;;;1726526;28;20610;-69
2022/01/05 04:37:14;;;;;;;0.10;0.10;;;;;;;;;;1725510;28;20219;-69
2022/01/05 04:38:06;;;;;;;0.20;0.20;;;;;;;;;;1726506;28;20589;-69
2022/01/05 04:38:58;;;;;;;0.22;0.22;;;;;;;;;;1726093;28;20212;-69
2022/01/05 04:39:50;;;;;;;0.10;0.10;;;;;;;;;;1725933;28;20228;-69
2022/01/05 04:40:41;;;;;;;0.17;0.17;;;;;;;;;;1725337;28;20232;-69
2022/01/05 04:41:35;;;;;;;0.00;0.00;;;;;;;;;;1726230;28;20302;-69
2022/01/05 04:42:26;;;;;;;0.10;0.10;;;;;;;;;;1726350;28;20200;-69
2022/01/05 04:43:19;;;;;;;0.00;0.00;;;;;;;;;;1725427;28;20200;-69
2022/01/05 04:44:10;;;;;;;0.20;0.20;;;;;;;;;;1726178;28;20558;-69
2022/01/05 04:45:02;;;;;;;0.00;0.00;;;;;;;;;;1726335;28;20704;-69
2022/01/05 04:45:53;;;;;;;0.10;0.10;;;;;;;;;;1725923;28;20340;-69
2022/01/05 04:46:45;;;;;;;0.10;0.10;;;;;;;;;;1726143;28;20204;-69
2022/01/05 04:47:36;;;;;;;0.10;0.10;;;;;;;;;;1726292;28;20571;-69
2022/01/05 04:48:29;;;;;;;0.20;0.20;;;;;;;;;;1725635;28;20200;-69
2022/01/05 04:49:20;;;;;;;0.20;0.20;;;;;;;;;;1725858;28;20203;-69
2022/01/05 04:50:15;;;;;;;0.20;0.20;;;;;;;;;;1725937;28;20211;-69
2022/01/05 04:51:06;;;;;;;0.17;0.17;;;;;;;;;;1725929;28;20236;-69
2022/01/05 04:51:58;;;;;;;0.10;0.10;;;;;;;;;;1725937;28;20211;-69
2022/01/05 04:52:49;;;;;;;0.20;0.20;;;;;;;;;;1726169;28;20227;-69
2022/01/05 04:53:41;;;;;;;0.10;0.10;;;;;;;;;;1726083;28;20619;-69
2022/01/05 04:54:32;;;;;;;0.17;0.17;;;;;;;;;;1723566;28;20208;-69
2022/01/05 04:55:25;;;;;;;0.00;0.00;;;;;;;;;;1723471;28;20235;-68
2022/01/05 04:56:16;;;;;;;0.13;0.13;;;;;;;;;;1726331;28;20209;-68
2022/01/05 04:57:10;;;;;;;0.10;0.10;;;;;;;;;;1726274;28;20258;-68
2022/01/05 04:58:01;;;;;;;0.10;0.10;;;;;;;;;;1726400;28;20209;-68
2022/01/05 04:58:55;;;;;;;0.10;0.10;;;;;;;;;;1725360;28;20724;-68
2022/01/05 04:59:47;;;;;;;0.20;0.20;;;;;;;;;;1726128;28;20207;-68
2022/01/05 05:00:39;;;;;;;0.05;0.05;;;;;;;;;;1725083;28;20197;-68
2022/01/05 05:01:30;;;;;;;0.10;0.10;;;;;;;;;;1725528;28;20199;-68
2022/01/05 05:02:22;;;;;;;0.10;0.10;;;;;;;;;;1726136;28;20645;-68
2022/01/05 05:03:14;;;;;;;0.20;0.20;;;;;;;;;;1726354;28;20600;-69
2022/01/05 05:04:06;;;;;;;0.10;0.10;;;;;;;;;;1725933;28;20239;-69
2022/01/05 05:04:57;;;;;;;0.10;0.10;;;;;;;;;;1726053;28;20215;-68
2022/01/05 05:05:49;;;;;;;0.10;0.10;;;;;;;;;;1725854;28;20318;-69
2022/01/05 05:06:40;;;;;;;0.00;0.00;;;;;;;;;;1726409;28;20591;-69
2022/01/05 05:07:33;;;;;;;0.10;0.10;;;;;;;;;;1725897;28;20626;-69
2022/01/05 05:08:24;;;;;;;0.10;0.10;;;;;;;;;;1725899;28;20208;-69
2022/01/05 05:09:16;;;;;;;0.20;0.20;;;;;;;;;;1725930;28;20299;-69
2022/01/05 05:10:10;;;;;;;0.10;0.10;;;;;;;;;;1725839;28;20216;-69
2022/01/05 05:11:03;;;;;;;0.10;0.10;;;;;;;;;;1725598;28;20228;-69
2022/01/05 05:11:54;;;;;;;0.20;0.20;;;;;;;;;;1725958;28;20458;-68